sensor_id;sensor_type;location;lat;lon;timestamp;P1;durP1;ratioP1;P2;durP2;ratioP2
495;SDS011;39559;48.630;9.162;2024-01-11T00:02:18;36.60;;;23.97;;
495;SDS011;39559;48.630;9.162;2024-01-11T00:04:43;43.23;;;25.53;;
495;SDS011;39559;48.630;9.162;2024-01-11T00:07:09;47.33;;;26.53;;
495;SDS011;39559;48.630;9.162;2024-01-11T00:11:47;42.28;;;23.42;;
495;SDS011;39559;48.630;9.162;2024-01-11T00:14:12;43.87;;;22.80;;
495;SDS011;39559;48.630;9.162;2024-01-11T00:16:38;42.63;;;23.97;;
495;SDS011;39559;48.630;9.162;2024-01-11T00:19:03;42.37;;;23.47;;
495;SDS011;39559;48.630;9.162;2024-01-11T00:21:29;41.77;;;22.27;;
495;SDS011;39559;48.630;9.162;2024-01-11T00:23:54;45.47;;;24.00;;
495;SDS011;39559;48.630;9.162;2024-01-11T00:26:20;45.07;;;24.50;;
495;SDS011;39559;48.630;9.162;2024-01-11T00:28:45;42.17;;;24.80;;
495;SDS011;39559;48.630;9.162;2024-01-11T00:31:11;41.37;;;23.83;;
495;SDS011;39559;48.630;9.162;2024-01-11T00:35:51;41.83;;;22.23;;
495;SDS011;39559;48.630;9.162;2024-01-11T00:38:16;36.80;;;23.60;;
495;SDS011;39559;48.630;9.162;2024-01-11T00:40:42;42.10;;;23.58;;
495;SDS011;39559;48.630;9.162;2024-01-11T00:43:08;45.23;;;24.17;;
495;SDS011;39559;48.630;9.162;2024-01-11T00:45:34;47.25;;;23.88;;
495;SDS011;39559;48.630;9.162;2024-01-11T00:48:00;39.88;;;24.13;;
495;SDS011;39559;48.630;9.162;2024-01-11T00:50:25;32.90;;;22.60;;
495;SDS011;39559;48.630;9.162;2024-01-11T00:52:51;40.87;;;24.30;;
495;SDS011;39559;48.630;9.162;2024-01-11T00:55:16;37.57;;;23.43;;
495;SDS011;39559;48.630;9.162;2024-01-11T00:59:55;43.05;;;24.30;;
495;SDS011;39559;48.630;9.162;2024-01-11T01:02:20;46.47;;;25.57;;
495;SDS011;39559;48.630;9.162;2024-01-11T01:04:46;35.97;;;23.90;;
495;SDS011;39559;48.630;9.162;2024-01-11T01:07:11;34.90;;;20.87;;
495;SDS011;39559;48.630;9.162;2024-01-11T01:09:37;36.97;;;23.30;;
495;SDS011;39559;48.630;9.162;2024-01-11T01:12:02;44.97;;;25.10;;
495;SDS011;39559;48.630;9.162;2024-01-11T01:14:28;40.37;;;22.87;;
495;SDS011;39559;48.630;9.162;2024-01-11T01:16:54;38.07;;;23.60;;
495;SDS011;39559;48.630;9.162;2024-01-11T01:19:19;37.53;;;24.13;;
495;SDS011;39559;48.630;9.162;2024-01-11T01:23:59;34.05;;;21.08;;
495;SDS011;39559;48.630;9.162;2024-01-11T01:26:24;43.67;;;22.80;;
495;SDS011;39559;48.630;9.162;2024-01-11T01:28:50;42.70;;;20.50;;
495;SDS011;39559;48.630;9.162;2024-01-11T01:31:15;33.30;;;21.97;;
495;SDS011;39559;48.630;9.162;2024-01-11T01:33:41;44.10;;;23.90;;
495;SDS011;39559;48.630;9.162;2024-01-11T01:36:10;36.10;;;23.10;;
495;SDS011;39559;48.630;9.162;2024-01-11T01:38:35;42.97;;;23.65;;
495;SDS011;39559;48.630;9.162;2024-01-11T01:41:01;40.43;;;24.30;;
495;SDS011;39559;48.630;9.162;2024-01-11T01:43:26;35.43;;;21.67;;
495;SDS011;39559;48.630;9.162;2024-01-11T01:48:03;38.13;;;22.65;;
495;SDS011;39559;48.630;9.162;2024-01-11T01:50:29;44.05;;;22.30;;
495;SDS011;39559;48.630;9.162;2024-01-11T01:52:55;43.90;;;23.80;;
495;SDS011;39559;48.630;9.162;2024-01-11T01:55:21;41.10;;;24.27;;
495;SDS011;39559;48.630;9.162;2024-01-11T01:57:48;38.60;;;21.33;;
495;SDS011;39559;48.630;9.162;2024-01-11T02:00:16;46.85;;;26.27;;
495;SDS011;39559;48.630;9.162;2024-01-11T02:02:45;41.13;;;23.77;;
495;SDS011;39559;48.630;9.162;2024-01-11T02:05:14;40.33;;;23.75;;
495;SDS011;39559;48.630;9.162;2024-01-11T02:07:42;34.92;;;22.92;;
495;SDS011;39559;48.630;9.162;2024-01-11T02:12:07;34.65;;;23.23;;
495;SDS011;39559;48.630;9.162;2024-01-11T02:14:38;38.38;;;21.90;;
495;SDS011;39559;48.630;9.162;2024-01-11T02:17:05;35.45;;;22.98;;
495;SDS011;39559;48.630;9.162;2024-01-11T02:19:31;41.38;;;25.23;;
495;SDS011;39559;48.630;9.162;2024-01-11T02:22:00;37.95;;;22.60;;
495;SDS011;39559;48.630;9.162;2024-01-11T02:24:30;42.20;;;24.30;;
495;SDS011;39559;48.630;9.162;2024-01-11T02:26:59;42.93;;;25.30;;
495;SDS011;39559;48.630;9.162;2024-01-11T02:29:29;37.25;;;24.67;;
495;SDS011;39559;48.630;9.162;2024-01-11T02:31:55;39.33;;;22.85;;
495;SDS011;39559;48.630;9.162;2024-01-11T02:36:09;39.30;;;20.37;;
495;SDS011;39559;48.630;9.162;2024-01-11T02:38:35;39.60;;;22.50;;
495;SDS011;39559;48.630;9.162;2024-01-11T02:41:01;34.47;;;22.08;;
495;SDS011;39559;48.630;9.162;2024-01-11T02:43:28;37.35;;;23.25;;
495;SDS011;39559;48.630;9.162;2024-01-11T02:45:56;35.77;;;21.40;;
495;SDS011;39559;48.630;9.162;2024-01-11T02:48:27;57.80;;;25.15;;
495;SDS011;39559;48.630;9.162;2024-01-11T02:50:58;37.40;;;23.13;;
495;SDS011;39559;48.630;9.162;2024-01-11T02:53:24;43.63;;;22.52;;
495;SDS011;39559;48.630;9.162;2024-01-11T02:55:50;42.87;;;23.63;;
495;SDS011;39559;48.630;9.162;2024-01-11T03:00:16;39.70;;;21.10;;
495;SDS011;39559;48.630;9.162;2024-01-11T03:02:43;37.45;;;21.65;;
495;SDS011;39559;48.630;9.162;2024-01-11T03:05:10;37.38;;;22.70;;
495;SDS011;39559;48.630;9.162;2024-01-11T03:07:35;45.43;;;24.47;;
495;SDS011;39559;48.630;9.162;2024-01-11T03:10:01;35.97;;;22.33;;
495;SDS011;39559;48.630;9.162;2024-01-11T03:12:26;34.40;;;22.47;;
495;SDS011;39559;48.630;9.162;2024-01-11T03:14:52;38.47;;;22.80;;
495;SDS011;39559;48.630;9.162;2024-01-11T03:17:18;35.47;;;23.20;;
495;SDS011;39559;48.630;9.162;2024-01-11T03:19:44;40.78;;;22.65;;
495;SDS011;39559;48.630;9.162;2024-01-11T03:24:19;40.55;;;23.55;;
495;SDS011;39559;48.630;9.162;2024-01-11T03:26:45;39.30;;;23.93;;
495;SDS011;39559;48.630;9.162;2024-01-11T03:29:11;36.63;;;20.87;;
495;SDS011;39559;48.630;9.162;2024-01-11T03:31:36;40.43;;;21.97;;
495;SDS011;39559;48.630;9.162;2024-01-11T03:34:03;41.92;;;22.92;;
495;SDS011;39559;48.630;9.162;2024-01-11T03:36:28;42.77;;;22.90;;
495;SDS011;39559;48.630;9.162;2024-01-11T03:38:54;38.80;;;21.30;;
495;SDS011;39559;48.630;9.162;2024-01-11T03:41:19;33.27;;;20.40;;
495;SDS011;39559;48.630;9.162;2024-01-11T03:43:45;39.40;;;23.03;;
495;SDS011;39559;48.630;9.162;2024-01-11T03:48:24;29.73;;;20.08;;
495;SDS011;39559;48.630;9.162;2024-01-11T03:50:49;42.37;;;23.03;;
495;SDS011;39559;48.630;9.162;2024-01-11T03:53:15;39.40;;;23.00;;
495;SDS011;39559;48.630;9.162;2024-01-11T03:55:40;33.87;;;23.20;;
495;SDS011;39559;48.630;9.162;2024-01-11T03:58:06;35.90;;;22.07;;
495;SDS011;39559;48.630;9.162;2024-01-11T04:00:31;36.97;;;21.17;;
495;SDS011;39559;48.630;9.162;2024-01-11T04:02:58;36.95;;;21.75;;
495;SDS011;39559;48.630;9.162;2024-01-11T04:05:24;36.13;;;22.10;;
495;SDS011;39559;48.630;9.162;2024-01-11T04:07:49;39.50;;;24.07;;
495;SDS011;39559;48.630;9.162;2024-01-11T04:12:28;39.03;;;22.63;;
495;SDS011;39559;48.630;9.162;2024-01-11T04:14:54;37.70;;;23.50;;
495;SDS011;39559;48.630;9.162;2024-01-11T04:17:19;35.83;;;22.23;;
495;SDS011;39559;48.630;9.162;2024-01-11T04:19:45;40.83;;;25.13;;
495;SDS011;39559;48.630;9.162;2024-01-11T04:22:10;38.30;;;23.10;;
495;SDS011;39559;48.630;9.162;2024-01-11T04:24:36;44.53;;;21.47;;
495;SDS011;39559;48.630;9.162;2024-01-11T04:27:02;32.90;;;21.77;;
495;SDS011;39559;48.630;9.162;2024-01-11T04:29:27;34.90;;;21.70;;
495;SDS011;39559;48.630;9.162;2024-01-11T04:31:53;41.43;;;22.97;;
495;SDS011;39559;48.630;9.162;2024-01-11T04:36:32;33.58;;;19.67;;
495;SDS011;39559;48.630;9.162;2024-01-11T04:38:58;41.53;;;22.30;;
495;SDS011;39559;48.630;9.162;2024-01-11T04:41:23;45.43;;;23.13;;
495;SDS011;39559;48.630;9.162;2024-01-11T04:43:49;41.03;;;25.30;;
495;SDS011;39559;48.630;9.162;2024-01-11T04:46:21;60.63;;;24.67;;
495;SDS011;39559;48.630;9.162;2024-01-11T04:48:48;35.72;;;23.52;;
495;SDS011;39559;48.630;9.162;2024-01-11T04:51:15;44.20;;;24.73;;
495;SDS011;39559;48.630;9.162;2024-01-11T04:53:43;38.67;;;21.45;;
495;SDS011;39559;48.630;9.162;2024-01-11T04:56:10;44.72;;;25.40;;
495;SDS011;39559;48.630;9.162;2024-01-11T05:00:36;34.13;;;20.05;;
495;SDS011;39559;48.630;9.162;2024-01-11T05:03:02;36.57;;;24.33;;
495;SDS011;39559;48.630;9.162;2024-01-11T05:05:27;37.70;;;22.00;;
495;SDS011;39559;48.630;9.162;2024-01-11T05:07:53;42.53;;;20.90;;
495;SDS011;39559;48.630;9.162;2024-01-11T05:10:18;31.20;;;21.30;;
495;SDS011;39559;48.630;9.162;2024-01-11T05:12:44;34.83;;;21.10;;
495;SDS011;39559;48.630;9.162;2024-01-11T05:15:09;36.97;;;23.60;;
495;SDS011;39559;48.630;9.162;2024-01-11T05:17:35;37.13;;;22.17;;
495;SDS011;39559;48.630;9.162;2024-01-11T05:20:01;42.63;;;24.57;;
495;SDS011;39559;48.630;9.162;2024-01-11T05:24:41;37.50;;;21.83;;
495;SDS011;39559;48.630;9.162;2024-01-11T05:27:07;39.07;;;21.87;;
495;SDS011;39559;48.630;9.162;2024-01-11T05:29:32;40.27;;;24.17;;
495;SDS011;39559;48.630;9.162;2024-01-11T05:31:58;43.60;;;21.67;;
495;SDS011;39559;48.630;9.162;2024-01-11T05:34:23;40.40;;;22.77;;
495;SDS011;39559;48.630;9.162;2024-01-11T05:36:49;37.63;;;22.80;;
495;SDS011;39559;48.630;9.162;2024-01-11T05:39:14;37.73;;;20.80;;
495;SDS011;39559;48.630;9.162;2024-01-11T05:41:43;36.70;;;23.87;;
495;SDS011;39559;48.630;9.162;2024-01-11T05:44:10;33.15;;;20.50;;
495;SDS011;39559;48.630;9.162;2024-01-11T05:48:47;37.55;;;22.20;;
495;SDS011;39559;48.630;9.162;2024-01-11T05:51:12;39.27;;;21.20;;
495;SDS011;39559;48.630;9.162;2024-01-11T05:53:38;41.80;;;21.10;;
495;SDS011;39559;48.630;9.162;2024-01-11T05:56:09;38.63;;;21.70;;
495;SDS011;39559;48.630;9.162;2024-01-11T05:58:36;35.60;;;21.50;;
495;SDS011;39559;48.630;9.162;2024-01-11T06:01:04;40.97;;;20.83;;
495;SDS011;39559;48.630;9.162;2024-01-11T06:03:30;44.57;;;24.60;;
495;SDS011;39559;48.630;9.162;2024-01-11T06:05:59;40.33;;;23.85;;
495;SDS011;39559;48.630;9.162;2024-01-11T06:08:26;40.92;;;24.52;;
495;SDS011;39559;48.630;9.162;2024-01-11T06:12:51;42.28;;;23.60;;
495;SDS011;39559;48.630;9.162;2024-01-11T06:15:17;43.90;;;24.27;;
495;SDS011;39559;48.630;9.162;2024-01-11T06:17:42;32.20;;;22.00;;
495;SDS011;39559;48.630;9.162;2024-01-11T06:20:08;38.10;;;22.50;;
495;SDS011;39559;48.630;9.162;2024-01-11T06:22:35;41.53;;;24.92;;
495;SDS011;39559;48.630;9.162;2024-01-11T06:25:00;40.40;;;22.47;;
495;SDS011;39559;48.630;9.162;2024-01-11T06:27:26;39.90;;;22.53;;
495;SDS011;39559;48.630;9.162;2024-01-11T06:29:51;43.10;;;25.23;;
495;SDS011;39559;48.630;9.162;2024-01-11T06:32:17;43.63;;;23.50;;
495;SDS011;39559;48.630;9.162;2024-01-11T06:36:56;40.13;;;23.25;;
495;SDS011;39559;48.630;9.162;2024-01-11T06:39:21;35.73;;;24.03;;
495;SDS011;39559;48.630;9.162;2024-01-11T06:41:47;42.53;;;24.70;;
495;SDS011;39559;48.630;9.162;2024-01-11T06:44:12;40.47;;;23.70;;
495;SDS011;39559;48.630;9.162;2024-01-11T06:46:38;40.90;;;22.17;;
495;SDS011;39559;48.630;9.162;2024-01-11T06:49:07;37.50;;;22.20;;
495;SDS011;39559;48.630;9.162;2024-01-11T06:51:33;38.58;;;22.00;;
495;SDS011;39559;48.630;9.162;2024-01-11T06:53:59;36.47;;;20.77;;
495;SDS011;39559;48.630;9.162;2024-01-11T06:56:26;41.97;;;23.55;;
495;SDS011;39559;48.630;9.162;2024-01-11T07:01:01;37.42;;;21.60;;
495;SDS011;39559;48.630;9.162;2024-01-11T07:03:26;50.47;;;24.80;;
495;SDS011;39559;48.630;9.162;2024-01-11T07:05:52;37.70;;;24.52;;
495;SDS011;39559;48.630;9.162;2024-01-11T07:08:19;38.95;;;24.60;;
495;SDS011;39559;48.630;9.162;2024-01-11T07:10:44;47.90;;;25.53;;
495;SDS011;39559;48.630;9.162;2024-01-11T07:13:10;40.63;;;24.37;;
495;SDS011;39559;48.630;9.162;2024-01-11T07:15:37;38.45;;;24.13;;
495;SDS011;39559;48.630;9.162;2024-01-11T07:18:02;39.83;;;22.30;;
495;SDS011;39559;48.630;9.162;2024-01-11T07:20:28;39.20;;;23.52;;
495;SDS011;39559;48.630;9.162;2024-01-11T07:25:05;48.45;;;28.90;;
495;SDS011;39559;48.630;9.162;2024-01-11T07:27:32;43.20;;;24.65;;
495;SDS011;39559;48.630;9.162;2024-01-11T07:29:57;45.40;;;24.67;;
495;SDS011;39559;48.630;9.162;2024-01-11T07:32:23;46.83;;;26.23;;
495;SDS011;39559;48.630;9.162;2024-01-11T07:34:49;39.33;;;24.73;;
495;SDS011;39559;48.630;9.162;2024-01-11T07:37:14;43.97;;;24.40;;
495;SDS011;39559;48.630;9.162;2024-01-11T07:39:40;47.07;;;26.30;;
495;SDS011;39559;48.630;9.162;2024-01-11T07:42:06;41.27;;;24.10;;
495;SDS011;39559;48.630;9.162;2024-01-11T07:44:31;41.77;;;23.97;;
495;SDS011;39559;48.630;9.162;2024-01-11T07:49:10;43.65;;;25.73;;
495;SDS011;39559;48.630;9.162;2024-01-11T07:51:36;42.60;;;23.77;;
495;SDS011;39559;48.630;9.162;2024-01-11T07:54:01;38.63;;;23.50;;
495;SDS011;39559;48.630;9.162;2024-01-11T07:56:28;42.25;;;23.65;;
495;SDS011;39559;48.630;9.162;2024-01-11T07:58:54;35.65;;;21.90;;
495;SDS011;39559;48.630;9.162;2024-01-11T08:01:20;34.47;;;21.27;;
495;SDS011;39559;48.630;9.162;2024-01-11T08:03:46;44.23;;;22.40;;
495;SDS011;39559;48.630;9.162;2024-01-11T08:06:12;43.50;;;25.42;;
495;SDS011;39559;48.630;9.162;2024-01-11T08:08:38;44.20;;;25.40;;
495;SDS011;39559;48.630;9.162;2024-01-11T08:13:15;43.67;;;26.83;;
495;SDS011;39559;48.630;9.162;2024-01-11T08:15:43;43.60;;;25.83;;
495;SDS011;39559;48.630;9.162;2024-01-11T08:18:09;45.33;;;29.75;;
495;SDS011;39559;48.630;9.162;2024-01-11T08:20:34;47.53;;;27.85;;
495;SDS011;39559;48.630;9.162;2024-01-11T08:23:00;39.07;;;24.97;;
495;SDS011;39559;48.630;9.162;2024-01-11T08:25:26;40.47;;;24.33;;
495;SDS011;39559;48.630;9.162;2024-01-11T08:27:51;47.87;;;27.90;;
495;SDS011;39559;48.630;9.162;2024-01-11T08:30:17;42.33;;;25.07;;
495;SDS011;39559;48.630;9.162;2024-01-11T08:32:43;44.67;;;27.10;;
495;SDS011;39559;48.630;9.162;2024-01-11T08:37:20;44.28;;;25.48;;
495;SDS011;39559;48.630;9.162;2024-01-11T08:39:46;57.90;;;29.67;;
495;SDS011;39559;48.630;9.162;2024-01-11T08:42:12;44.97;;;28.37;;
495;SDS011;39559;48.630;9.162;2024-01-11T08:44:41;44.30;;;24.27;;
495;SDS011;39559;48.630;9.162;2024-01-11T08:47:07;40.20;;;25.95;;
495;SDS011;39559;48.630;9.162;2024-01-11T08:49:38;46.67;;;26.50;;
495;SDS011;39559;48.630;9.162;2024-01-11T08:52:04;49.33;;;27.42;;
495;SDS011;39559;48.630;9.162;2024-01-11T08:54:31;49.20;;;28.23;;
495;SDS011;39559;48.630;9.162;2024-01-11T08:56:58;56.17;;;27.50;;
495;SDS011;39559;48.630;9.162;2024-01-11T09:01:25;49.70;;;29.35;;
495;SDS011;39559;48.630;9.162;2024-01-11T09:03:50;58.57;;;30.20;;
495;SDS011;39559;48.630;9.162;2024-01-11T09:06:16;60.60;;;31.57;;
495;SDS011;39559;48.630;9.162;2024-01-11T09:08:41;56.53;;;32.37;;
495;SDS011;39559;48.630;9.162;2024-01-11T09:11:07;61.87;;;31.87;;
495;SDS011;39559;48.630;9.162;2024-01-11T09:13:33;54.67;;;32.23;;
495;SDS011;39559;48.630;9.162;2024-01-11T09:15:58;56.83;;;31.60;;
495;SDS011;39559;48.630;9.162;2024-01-11T09:18:23;58.93;;;32.70;;
495;SDS011;39559;48.630;9.162;2024-01-11T09:20:49;74.90;;;41.63;;
495;SDS011;39559;48.630;9.162;2024-01-11T09:25:32;66.07;;;37.75;;
495;SDS011;39559;48.630;9.162;2024-01-11T09:27:58;70.60;;;41.10;;
495;SDS011;39559;48.630;9.162;2024-01-11T09:30:24;62.67;;;32.60;;
495;SDS011;39559;48.630;9.162;2024-01-11T09:32:49;49.83;;;28.63;;
495;SDS011;39559;48.630;9.162;2024-01-11T09:35:15;42.57;;;27.47;;
495;SDS011;39559;48.630;9.162;2024-01-11T09:37:40;55.33;;;29.80;;
495;SDS011;39559;48.630;9.162;2024-01-11T09:40:06;59.90;;;32.37;;
495;SDS011;39559;48.630;9.162;2024-01-11T09:42:39;51.38;;;28.98;;
495;SDS011;39559;48.630;9.162;2024-01-11T09:45:09;51.70;;;30.40;;
495;SDS011;39559;48.630;9.162;2024-01-11T09:49:35;54.33;;;33.08;;
495;SDS011;39559;48.630;9.162;2024-01-11T09:52:03;61.70;;;34.40;;
495;SDS011;39559;48.630;9.162;2024-01-11T09:54:30;56.63;;;30.33;;
495;SDS011;39559;48.630;9.162;2024-01-11T09:56:58;49.75;;;31.10;;
495;SDS011;39559;48.630;9.162;2024-01-11T09:59:26;47.95;;;30.38;;
495;SDS011;39559;48.630;9.162;2024-01-11T10:01:51;48.53;;;31.43;;
495;SDS011;39559;48.630;9.162;2024-01-11T10:04:18;51.15;;;30.33;;
495;SDS011;39559;48.630;9.162;2024-01-11T10:06:43;45.67;;;28.80;;
495;SDS011;39559;48.630;9.162;2024-01-11T10:09:10;47.25;;;28.17;;
495;SDS011;39559;48.630;9.162;2024-01-11T10:13:39;42.50;;;27.05;;
495;SDS011;39559;48.630;9.162;2024-01-11T10:16:09;43.70;;;28.57;;
495;SDS011;39559;48.630;9.162;2024-01-11T10:18:38;42.75;;;27.02;;
495;SDS011;39559;48.630;9.162;2024-01-11T10:21:04;40.75;;;27.50;;
495;SDS011;39559;48.630;9.162;2024-01-11T10:23:34;43.33;;;27.08;;
495;SDS011;39559;48.630;9.162;2024-01-11T10:26:00;45.88;;;29.73;;
495;SDS011;39559;48.630;9.162;2024-01-11T10:28:25;49.20;;;28.98;;
495;SDS011;39559;48.630;9.162;2024-01-11T10:30:52;45.20;;;30.40;;
495;SDS011;39559;48.630;9.162;2024-01-11T10:33:21;43.85;;;29.10;;
495;SDS011;39559;48.630;9.162;2024-01-11T10:37:44;42.45;;;27.67;;
495;SDS011;39559;48.630;9.162;2024-01-11T10:40:10;45.63;;;29.17;;
495;SDS011;39559;48.630;9.162;2024-01-11T10:42:44;48.35;;;29.70;;
495;SDS011;39559;48.630;9.162;2024-01-11T10:45:14;50.65;;;29.25;;
495;SDS011;39559;48.630;9.162;2024-01-11T10:47:47;53.92;;;30.75;;
495;SDS011;39559;48.630;9.162;2024-01-11T10:50:17;46.45;;;29.48;;
495;SDS011;39559;48.630;9.162;2024-01-11T10:52:49;50.80;;;30.23;;
495;SDS011;39559;48.630;9.162;2024-01-11T10:55:33;52.72;;;29.52;;
495;SDS011;39559;48.630;9.162;2024-01-11T10:57:59;55.40;;;29.83;;
495;SDS011;39559;48.630;9.162;2024-01-11T11:01:49;51.15;;;29.27;;
495;SDS011;39559;48.630;9.162;2024-01-11T11:04:15;49.25;;;28.42;;
495;SDS011;39559;48.630;9.162;2024-01-11T11:06:41;49.38;;;30.13;;
495;SDS011;39559;48.630;9.162;2024-01-11T11:09:08;51.35;;;30.27;;
495;SDS011;39559;48.630;9.162;2024-01-11T11:11:35;48.00;;;28.63;;
495;SDS011;39559;48.630;9.162;2024-01-11T11:14:01;56.22;;;31.17;;
495;SDS011;39559;48.630;9.162;2024-01-11T11:16:30;47.80;;;27.92;;
495;SDS011;39559;48.630;9.162;2024-01-11T11:18:56;55.33;;;28.87;;
495;SDS011;39559;48.630;9.162;2024-01-11T11:21:22;49.22;;;28.65;;
495;SDS011;39559;48.630;9.162;2024-01-11T11:25:54;42.60;;;27.80;;
495;SDS011;39559;48.630;9.162;2024-01-11T11:28:23;52.65;;;30.30;;
495;SDS011;39559;48.630;9.162;2024-01-11T11:30:49;46.58;;;29.88;;
495;SDS011;39559;48.630;9.162;2024-01-11T11:33:18;49.80;;;29.92;;
495;SDS011;39559;48.630;9.162;2024-01-11T11:35:46;43.25;;;28.85;;
495;SDS011;39559;48.630;9.162;2024-01-11T11:38:18;52.92;;;30.33;;
495;SDS011;39559;48.630;9.162;2024-01-11T11:40:48;44.25;;;29.42;;
495;SDS011;39559;48.630;9.162;2024-01-11T11:43:16;50.28;;;28.83;;
495;SDS011;39559;48.630;9.162;2024-01-11T11:45:46;49.38;;;28.67;;
495;SDS011;39559;48.630;9.162;2024-01-11T11:50:02;43.28;;;28.95;;
495;SDS011;39559;48.630;9.162;2024-01-11T11:52:39;37.03;;;25.40;;
495;SDS011;39559;48.630;9.162;2024-01-11T11:55:08;43.53;;;26.73;;
495;SDS011;39559;48.630;9.162;2024-01-11T11:57:34;43.55;;;27.05;;
495;SDS011;39559;48.630;9.162;2024-01-11T12:00:01;43.25;;;26.52;;
495;SDS011;39559;48.630;9.162;2024-01-11T12:02:31;41.28;;;26.05;;
495;SDS011;39559;48.630;9.162;2024-01-11T12:04:57;41.20;;;27.10;;
495;SDS011;39559;48.630;9.162;2024-01-11T12:07:22;42.03;;;26.70;;
495;SDS011;39559;48.630;9.162;2024-01-11T12:09:51;39.75;;;26.25;;
495;SDS011;39559;48.630;9.162;2024-01-11T12:14:02;45.72;;;28.65;;
495;SDS011;39559;48.630;9.162;2024-01-11T12:16:27;48.10;;;29.00;;
495;SDS011;39559;48.630;9.162;2024-01-11T12:18:53;38.90;;;27.13;;
495;SDS011;39559;48.630;9.162;2024-01-11T12:21:19;45.57;;;27.57;;
495;SDS011;39559;48.630;9.162;2024-01-11T12:23:45;47.40;;;26.60;;
495;SDS011;39559;48.630;9.162;2024-01-11T12:26:10;41.60;;;26.90;;
495;SDS011;39559;48.630;9.162;2024-01-11T12:28:38;48.55;;;29.40;;
495;SDS011;39559;48.630;9.162;2024-01-11T12:31:05;37.58;;;26.33;;
495;SDS011;39559;48.630;9.162;2024-01-11T12:33:31;38.67;;;27.13;;
495;SDS011;39559;48.630;9.162;2024-01-11T12:38:06;38.38;;;27.95;;
495;SDS011;39559;48.630;9.162;2024-01-11T12:40:32;46.85;;;27.95;;
495;SDS011;39559;48.630;9.162;2024-01-11T12:42:59;42.83;;;26.70;;
495;SDS011;39559;48.630;9.162;2024-01-11T12:45:25;35.87;;;26.37;;
495;SDS011;39559;48.630;9.162;2024-01-11T12:47:51;49.97;;;28.73;;
495;SDS011;39559;48.630;9.162;2024-01-11T12:50:18;43.22;;;28.38;;
495;SDS011;39559;48.630;9.162;2024-01-11T12:52:45;49.30;;;26.40;;
495;SDS011;39559;48.630;9.162;2024-01-11T12:55:18;46.40;;;27.00;;
495;SDS011;39559;48.630;9.162;2024-01-11T12:57:47;42.83;;;26.08;;
495;SDS011;39559;48.630;9.162;2024-01-11T13:02:10;47.45;;;27.08;;
495;SDS011;39559;48.630;9.162;2024-01-11T13:04:40;39.38;;;26.92;;
495;SDS011;39559;48.630;9.162;2024-01-11T13:07:08;39.38;;;26.48;;
495;SDS011;39559;48.630;9.162;2024-01-11T13:09:34;41.47;;;26.52;;
495;SDS011;39559;48.630;9.162;2024-01-11T13:12:00;46.03;;;27.50;;
495;SDS011;39559;48.630;9.162;2024-01-11T13:14:25;42.27;;;26.77;;
495;SDS011;39559;48.630;9.162;2024-01-11T13:16:51;40.70;;;26.80;;
495;SDS011;39559;48.630;9.162;2024-01-11T13:19:16;44.23;;;26.97;;
495;SDS011;39559;48.630;9.162;2024-01-11T13:21:42;41.30;;;26.57;;
495;SDS011;39559;48.630;9.162;2024-01-11T13:26:12;43.40;;;26.23;;
495;SDS011;39559;48.630;9.162;2024-01-11T13:28:38;39.10;;;25.53;;
495;SDS011;39559;48.630;9.162;2024-01-11T13:31:04;38.53;;;26.27;;
495;SDS011;39559;48.630;9.162;2024-01-11T13:33:29;42.23;;;27.60;;
495;SDS011;39559;48.630;9.162;2024-01-11T13:35:55;38.17;;;26.10;;
495;SDS011;39559;48.630;9.162;2024-01-11T13:38:20;41.63;;;28.00;;
495;SDS011;39559;48.630;9.162;2024-01-11T13:40:46;43.10;;;27.63;;
495;SDS011;39559;48.630;9.162;2024-01-11T13:43:11;42.30;;;27.10;;
495;SDS011;39559;48.630;9.162;2024-01-11T13:45:37;42.80;;;27.20;;
495;SDS011;39559;48.630;9.162;2024-01-11T13:50:15;51.60;;;27.67;;
495;SDS011;39559;48.630;9.162;2024-01-11T13:52:42;45.47;;;26.50;;
495;SDS011;39559;48.630;9.162;2024-01-11T13:55:10;42.25;;;27.65;;
495;SDS011;39559;48.630;9.162;2024-01-11T13:57:36;44.40;;;26.90;;
495;SDS011;39559;48.630;9.162;2024-01-11T14:00:02;46.15;;;28.98;;
495;SDS011;39559;48.630;9.162;2024-01-11T14:02:32;42.47;;;27.63;;
495;SDS011;39559;48.630;9.162;2024-01-11T14:04:58;41.25;;;27.65;;
495;SDS011;39559;48.630;9.162;2024-01-11T14:07:24;39.43;;;25.67;;
495;SDS011;39559;48.630;9.162;2024-01-11T14:09:50;45.57;;;26.07;;
495;SDS011;39559;48.630;9.162;2024-01-11T14:14:18;43.42;;;23.73;;
495;SDS011;39559;48.630;9.162;2024-01-11T14:16:45;42.58;;;27.75;;
495;SDS011;39559;48.630;9.162;2024-01-11T14:19:12;40.28;;;25.60;;
495;SDS011;39559;48.630;9.162;2024-01-11T14:21:38;40.13;;;25.63;;
495;SDS011;39559;48.630;9.162;2024-01-11T14:24:03;43.60;;;27.30;;
495;SDS011;39559;48.630;9.162;2024-01-11T14:26:30;42.42;;;25.58;;
495;SDS011;39559;48.630;9.162;2024-01-11T14:28:57;41.67;;;27.52;;
495;SDS011;39559;48.630;9.162;2024-01-11T14:31:23;38.75;;;25.50;;
495;SDS011;39559;48.630;9.162;2024-01-11T14:33:48;47.13;;;26.47;;
495;SDS011;39559;48.630;9.162;2024-01-11T14:38:21;43.45;;;26.70;;
495;SDS011;39559;48.630;9.162;2024-01-11T14:40:46;38.90;;;26.27;;
495;SDS011;39559;48.630;9.162;2024-01-11T14:43:12;44.00;;;25.03;;
495;SDS011;39559;48.630;9.162;2024-01-11T14:45:37;42.30;;;26.30;;
495;SDS011;39559;48.630;9.162;2024-01-11T14:48:03;42.07;;;25.80;;
495;SDS011;39559;48.630;9.162;2024-01-11T14:50:28;38.10;;;24.70;;
495;SDS011;39559;48.630;9.162;2024-01-11T14:52:54;46.77;;;25.00;;
495;SDS011;39559;48.630;9.162;2024-01-11T14:55:19;48.07;;;27.80;;
495;SDS011;39559;48.630;9.162;2024-01-11T14:57:45;48.23;;;26.63;;
495;SDS011;39559;48.630;9.162;2024-01-11T15:02:23;46.55;;;27.75;;
495;SDS011;39559;48.630;9.162;2024-01-11T15:04:49;45.60;;;26.87;;
495;SDS011;39559;48.630;9.162;2024-01-11T15:07:15;47.07;;;28.37;;
495;SDS011;39559;48.630;9.162;2024-01-11T15:09:40;49.20;;;27.60;;
495;SDS011;39559;48.630;9.162;2024-01-11T15:12:09;47.73;;;28.27;;
495;SDS011;39559;48.630;9.162;2024-01-11T15:14:34;46.40;;;27.35;;
495;SDS011;39559;48.630;9.162;2024-01-11T15:17:00;43.80;;;25.50;;
495;SDS011;39559;48.630;9.162;2024-01-11T15:19:27;43.15;;;27.38;;
495;SDS011;39559;48.630;9.162;2024-01-11T15:21:53;41.72;;;26.40;;
495;SDS011;39559;48.630;9.162;2024-01-11T15:26:33;47.97;;;27.63;;
495;SDS011;39559;48.630;9.162;2024-01-11T15:29:00;48.05;;;27.15;;
495;SDS011;39559;48.630;9.162;2024-01-11T15:31:27;50.53;;;27.63;;
495;SDS011;39559;48.630;9.162;2024-01-11T15:33:54;48.88;;;28.65;;
495;SDS011;39559;48.630;9.162;2024-01-11T15:36:21;46.03;;;28.27;;
495;SDS011;39559;48.630;9.162;2024-01-11T15:38:48;45.30;;;27.88;;
495;SDS011;39559;48.630;9.162;2024-01-11T15:41:14;44.10;;;27.50;;
495;SDS011;39559;48.630;9.162;2024-01-11T15:43:40;52.40;;;27.63;;
495;SDS011;39559;48.630;9.162;2024-01-11T15:46:06;47.33;;;27.60;;
495;SDS011;39559;48.630;9.162;2024-01-11T15:50:31;43.97;;;26.83;;
495;SDS011;39559;48.630;9.162;2024-01-11T15:52:56;47.50;;;28.23;;
495;SDS011;39559;48.630;9.162;2024-01-11T15:55:22;54.90;;;29.20;;
495;SDS011;39559;48.630;9.162;2024-01-11T15:57:47;42.77;;;26.43;;
495;SDS011;39559;48.630;9.162;2024-01-11T16:00:13;43.70;;;28.47;;
495;SDS011;39559;48.630;9.162;2024-01-11T16:02:39;49.67;;;29.88;;
495;SDS011;39559;48.630;9.162;2024-01-11T16:05:08;45.78;;;29.17;;
495;SDS011;39559;48.630;9.162;2024-01-11T16:07:37;48.28;;;28.00;;